createdAt,value
2023-05-10T00:01:19.753Z,52.30
2023-05-10T00:03:47.058Z,52.37
2023-05-10T00:06:14.194Z,52.55
2023-05-10T00:08:41.414Z,52.52
2023-05-10T00:11:08.639Z,52.65
2023-05-10T00:13:35.996Z,52.90
2023-05-10T00:16:03.337Z,52.84
2023-05-10T00:18:30.604Z,52.91
2023-05-10T00:20:57.745Z,53.03
2023-05-10T00:23:24.942Z,53.11
2023-05-10T00:25:52.249Z,53.11
2023-05-10T00:28:19.385Z,53.10
2023-05-10T00:30:46.505Z,53.21
2023-05-10T00:33:13.729Z,53.02
2023-05-10T00:35:41.354Z,53.59
2023-05-10T00:38:08.559Z,53.59
2023-05-10T00:40:37.061Z,53.27
2023-05-10T00:43:04.219Z,53.11
2023-05-10T00:45:35.506Z,53.59
2023-05-10T00:48:03.766Z,53.31
2023-05-10T00:50:32.010Z,53.35
2023-05-10T00:53:00.173Z,53.72
2023-05-10T00:55:27.479Z,53.36
2023-05-10T00:57:54.900Z,53.78
2023-05-10T01:00:22.677Z,53.46
2023-05-10T01:02:50.667Z,53.67
2023-05-10T01:05:18.258Z,53.83
2023-05-10T01:07:45.464Z,53.83
2023-05-10T01:10:13.048Z,53.97
2023-05-10T01:12:41.938Z,53.78
2023-05-10T01:15:10.268Z,54.13
2023-05-10T01:17:39.307Z,54.42
2023-05-10T01:20:09.022Z,54.44
2023-05-10T01:22:55.166Z,54.70
2023-05-10T01:25:52.770Z,54.46
2023-05-10T01:28:57.686Z,54.69
2023-05-10T01:31:40.049Z,55.02
2023-05-10T01:34:11.071Z,55.22
2023-05-10T01:36:52.645Z,55.38
2023-05-10T01:39:41.715Z,55.18
2023-05-10T01:42:12.234Z,55.41
2023-05-10T01:44:49.752Z,55.41
2023-05-10T01:47:22.697Z,55.21
2023-05-10T01:49:51.977Z,55.68
2023-05-10T01:52:21.316Z,55.97
2023-05-10T01:54:57.156Z,55.38
2023-05-10T01:57:27.193Z,55.50
2023-05-10T01:59:54.741Z,55.68
2023-05-10T02:02:22.428Z,55.47
2023-05-10T02:04:50.943Z,55.69
2023-05-10T02:07:25.084Z,55.90
2023-05-10T02:09:52.800Z,56.06
2023-05-10T02:12:21.449Z,55.91
2023-05-10T02:14:48.913Z,56.19
2023-05-10T02:17:17.016Z,56.12
2023-05-10T02:19:44.382Z,56.67
2023-05-10T02:22:12.928Z,56.72
2023-05-10T02:24:41.080Z,56.66
2023-05-10T02:27:09.483Z,56.73
2023-05-10T02:29:37.801Z,56.48
2023-05-10T02:32:05.547Z,56.96
2023-05-10T02:34:32.904Z,57.00
2023-05-10T02:37:01.024Z,56.75
2023-05-10T02:39:29.624Z,56.98
2023-05-10T02:41:57.832Z,56.95
2023-05-10T02:44:28.343Z,56.63
2023-05-10T02:46:57.109Z,56.74
2023-05-10T02:49:24.374Z,56.72
2023-05-10T02:51:58.495Z,56.69
2023-05-10T02:54:28.630Z,57.05
2023-05-10T02:56:58.926Z,57.11
2023-05-10T02:59:26.174Z,57.53
2023-05-10T03:01:53.607Z,57.44
2023-05-10T03:04:20.831Z,57.43
2023-05-10T03:06:48.114Z,57.17
2023-05-10T03:09:16.702Z,57.74
2023-05-10T03:11:57.823Z,57.53
2023-05-10T03:14:35.805Z,57.41
2023-05-10T03:17:27.339Z,57.85
2023-05-10T03:19:57.075Z,57.91
2023-05-10T03:22:38.279Z,57.94
2023-05-10T03:25:07.900Z,57.91
2023-05-10T03:27:36.303Z,57.50
2023-05-10T03:30:04.064Z,57.76
2023-05-10T03:32:33.045Z,58.04
2023-05-10T03:35:00.167Z,57.94
2023-05-10T03:37:27.363Z,58.21
2023-05-10T03:39:54.510Z,58.31
2023-05-10T03:42:21.681Z,58.46
2023-05-10T03:44:50.431Z,57.86
2023-05-10T03:47:17.698Z,58.27
2023-05-10T03:49:44.782Z,58.65
2023-05-10T03:52:12.033Z,58.51
2023-05-10T03:54:39.202Z,58.81
2023-05-10T03:57:06.298Z,59.11
2023-05-10T03:59:33.432Z,59.17
2023-05-10T04:02:00.645Z,58.86
2023-05-10T04:04:27.735Z,58.96
2023-05-10T04:06:57.132Z,58.92
2023-05-10T04:09:24.306Z,58.86
2023-05-10T04:11:51.421Z,59.02
2023-05-10T04:14:18.697Z,59.06
2023-05-10T04:16:46.042Z,59.30
2023-05-10T04:19:13.317Z,58.82
2023-05-10T04:21:40.464Z,58.85
2023-05-10T04:24:07.799Z,58.68
2023-05-10T04:26:34.909Z,58.96
2023-05-10T04:29:01.998Z,58.78
2023-05-10T04:31:29.225Z,58.42
2023-05-10T04:33:56.336Z,58.61
2023-05-10T04:36:23.493Z,58.29
2023-05-10T04:38:51.041Z,58.55
2023-05-10T04:41:18.164Z,58.25
2023-05-10T04:43:45.284Z,58.03
2023-05-10T04:46:12.562Z,58.13
2023-05-10T04:48:39.757Z,58.30
2023-05-10T04:51:07.538Z,58.03
2023-05-10T04:53:34.732Z,57.95
2023-05-10T04:56:01.860Z,57.89
2023-05-10T04:58:28.938Z,57.99
2023-05-10T05:00:56.387Z,57.48
2023-05-10T05:03:23.611Z,57.87
2023-05-10T05:05:50.714Z,57.42
2023-05-10T05:08:17.887Z,57.30
2023-05-10T05:10:44.986Z,56.56
2023-05-10T05:13:13.701Z,56.45
2023-05-10T05:15:40.969Z,56.53
2023-05-10T05:18:08.214Z,55.93
2023-05-10T05:20:35.672Z,55.54
2023-05-10T05:23:02.940Z,55.23
2023-05-10T05:25:30.105Z,55.12
2023-05-10T05:27:57.225Z,55.03
2023-05-10T05:30:24.547Z,55.04
2023-05-10T05:32:51.667Z,54.46
2023-05-10T05:35:19.061Z,54.94
2023-05-10T05:37:46.648Z,54.12
2023-05-10T05:40:14.401Z,53.68
2023-05-10T05:42:41.448Z,53.45
2023-05-10T05:45:09.863Z,52.94
2023-05-10T05:47:37.323Z,52.85
2023-05-10T05:50:04.826Z,52.73
2023-05-10T05:52:31.987Z,53.28
2023-05-10T05:54:59.085Z,52.93
2023-05-10T05:57:28.078Z,53.04
2023-05-10T05:59:55.338Z,53.21
2023-05-10T06:02:22.689Z,53.76
2023-05-10T06:04:49.920Z,53.25
2023-05-10T06:07:17.686Z,53.57
2023-05-10T06:09:44.846Z,53.36
2023-05-10T06:12:12.809Z,53.73
2023-05-10T06:14:39.977Z,53.63
2023-05-10T06:17:07.815Z,53.77
2023-05-10T06:19:34.984Z,53.88
2023-05-10T06:22:02.795Z,54.44
2023-05-10T06:24:29.959Z,53.84
2023-05-10T06:26:57.367Z,54.18
2023-05-10T06:29:24.551Z,54.09
2023-05-10T06:31:51.707Z,53.98
2023-05-10T06:34:18.897Z,54.02
2023-05-10T06:36:46.196Z,54.08
2023-05-10T06:39:13.780Z,54.42
2023-05-10T06:41:42.012Z,54.23
2023-05-10T06:44:09.845Z,54.41
2023-05-10T06:46:37.508Z,54.33
2023-05-10T06:49:05.497Z,54.38
2023-05-10T06:51:33.873Z,54.26
2023-05-10T06:54:01.220Z,54.21
2023-05-10T06:56:28.299Z,53.97
2023-05-10T06:58:55.496Z,54.15
2023-05-10T07:01:22.920Z,53.99
2023-05-10T07:03:50.084Z,53.91
2023-05-10T07:06:32.383Z,54.02
2023-05-10T07:09:01.402Z,54.43
2023-05-10T07:11:29.084Z,54.13
2023-05-10T07:13:56.233Z,53.96
2023-05-10T07:16:23.488Z,54.06
2023-05-10T07:18:51.881Z,53.76
2023-05-10T07:21:19.305Z,53.54
2023-05-10T07:23:46.539Z,53.54
2023-05-10T07:26:13.700Z,53.08
2023-05-10T07:28:41.963Z,52.91
2023-05-10T07:31:09.527Z,52.37
2023-05-10T07:33:36.772Z,52.53
2023-05-10T07:36:03.982Z,52.38
2023-05-10T07:38:31.170Z,52.55
2023-05-10T07:40:58.387Z,52.57
2023-05-10T07:43:25.743Z,52.96
2023-05-10T07:45:54.708Z,52.50
2023-05-10T07:48:23.494Z,52.33
2023-05-10T07:50:50.642Z,52.37
2023-05-10T07:53:18.351Z,52.03
2023-05-10T07:55:46.190Z,52.11
2023-05-10T07:58:13.350Z,51.89
2023-05-10T08:00:41.471Z,52.36
2023-05-10T08:03:08.774Z,52.22
2023-05-10T08:05:36.174Z,52.15
2023-05-10T08:08:03.421Z,52.48
2023-05-10T08:10:30.915Z,52.30
2023-05-10T08:12:59.452Z,52.52
2023-05-10T08:15:26.642Z,52.67
2023-05-10T08:17:53.903Z,51.85
2023-05-10T08:20:21.595Z,52.01
2023-05-10T08:22:51.177Z,51.97
2023-05-10T08:25:19.976Z,52.12
2023-05-10T08:27:47.258Z,52.09
2023-05-10T08:30:14.478Z,52.14
2023-05-10T08:32:41.804Z,52.31
2023-05-10T08:35:09.027Z,52.46
2023-05-10T08:37:36.286Z,52.42
2023-05-10T08:40:04.271Z,52.54
2023-05-10T08:42:32.262Z,52.58
2023-05-10T08:45:00.348Z,52.58
2023-05-10T08:47:28.689Z,52.69
2023-05-10T08:49:55.911Z,52.79
2023-05-10T08:52:24.702Z,52.98
2023-05-10T08:54:52.102Z,53.38
2023-05-10T08:57:21.004Z,55.81
2023-05-10T08:59:48.405Z,58.41
2023-05-10T09:02:18.594Z,58.43
2023-05-10T09:04:46.039Z,59.74
2023-05-10T09:07:13.674Z,61.12
2023-05-10T09:09:40.882Z,60.64
2023-05-10T09:12:12.048Z,61.19
2023-05-10T09:14:39.894Z,61.75
2023-05-10T09:17:07.131Z,62.12
2023-05-10T09:19:34.218Z,62.88
2023-05-10T09:22:03.046Z,64.09
2023-05-10T09:24:31.249Z,64.86
2023-05-10T09:26:59.349Z,64.33
2023-05-10T09:29:26.522Z,64.87
2023-05-10T09:31:55.864Z,65.03
2023-05-10T09:34:33.732Z,64.95
2023-05-10T09:37:04.110Z,65.81
2023-05-10T09:39:35.931Z,66.21
2023-05-10T09:42:07.802Z,64.76
2023-05-10T09:44:35.539Z,65.04
2023-05-10T09:47:03.565Z,65.38
2023-05-10T09:49:30.961Z,65.81
2023-05-10T09:52:06.070Z,66.31
2023-05-10T09:54:34.854Z,66.15
2023-05-10T09:57:02.216Z,65.83
2023-05-10T09:59:30.135Z,66.60
2023-05-10T10:02:01.657Z,67.18
2023-05-10T10:04:29.196Z,68.37
2023-05-10T10:07:01.769Z,68.36
2023-05-10T10:09:29.428Z,69.78
2023-05-10T10:11:57.625Z,69.95
2023-05-10T10:14:25.306Z,69.76
2023-05-10T10:17:06.536Z,70.24
2023-05-10T10:19:36.766Z,69.67
2023-05-10T10:22:04.394Z,68.67
2023-05-10T10:24:31.523Z,68.54
2023-05-10T10:27:07.374Z,68.49
2023-05-10T10:29:53.652Z,67.91
2023-05-10T10:32:29.274Z,67.01
2023-05-10T10:34:57.208Z,66.69
2023-05-10T10:37:25.128Z,66.92
2023-05-10T10:39:52.317Z,67.42
2023-05-10T10:42:46.932Z,66.01
2023-05-10T10:45:14.955Z,66.29
2023-05-10T10:47:44.146Z,66.06
2023-05-10T10:50:13.962Z,65.48
2023-05-10T10:52:41.980Z,65.80
2023-05-10T10:55:10.320Z,65.50
2023-05-10T10:58:05.560Z,66.12
2023-05-10T11:00:33.418Z,65.72
2023-05-10T11:03:07.778Z,65.54
2023-05-10T11:05:46.131Z,66.09
2023-05-10T11:08:36.315Z,64.89
2023-05-10T11:11:09.006Z,63.74
2023-05-10T11:13:39.069Z,63.96
2023-05-10T11:16:24.589Z,64.45
2023-05-10T11:19:03.292Z,63.36
2023-05-10T11:21:34.601Z,63.46
2023-05-10T11:24:06.793Z,63.75
2023-05-10T11:26:36.073Z,64.99
2023-05-10T11:29:05.446Z,65.05
2023-05-10T11:31:32.711Z,65.58
2023-05-10T11:34:02.177Z,67.14
2023-05-10T11:36:33.108Z,68.11
2023-05-10T11:39:00.384Z,68.47
2023-05-10T11:41:29.364Z,69.00
2023-05-10T11:43:57.706Z,70.08
2023-05-10T11:46:27.928Z,71.70
2023-05-10T11:49:04.973Z,73.18
2023-05-10T11:51:36.693Z,73.48
2023-05-10T11:54:11.174Z,75.07
2023-05-10T11:56:41.510Z,74.55
2023-05-10T11:59:09.252Z,74.60
2023-05-10T12:01:37.152Z,75.83
2023-05-10T12:04:04.642Z,76.08
2023-05-10T12:06:33.223Z,76.72
2023-05-10T12:09:00.725Z,76.71
2023-05-10T12:11:29.124Z,77.75
2023-05-10T12:13:57.263Z,78.60
2023-05-10T12:16:26.745Z,78.12
2023-05-10T12:18:57.670Z,77.96
2023-05-10T12:21:25.027Z,77.88
2023-05-10T12:23:59.630Z,77.60
2023-05-10T12:26:30.060Z,78.54
2023-05-10T12:29:13.443Z,77.78
2023-05-10T12:31:57.114Z,78.40
2023-05-10T12:34:25.590Z,79.81
2023-05-10T12:36:56.396Z,79.81
2023-05-10T12:39:24.030Z,80.99
2023-05-10T12:41:51.792Z,80.03
2023-05-10T12:44:18.869Z,80.97
2023-05-10T12:46:46.045Z,81.45
2023-05-10T12:49:13.184Z,81.10
2023-05-10T12:51:40.401Z,81.16
2023-05-10T12:54:07.525Z,81.12
2023-05-10T12:56:34.739Z,81.05
2023-05-10T12:59:01.890Z,81.34
2023-05-10T13:01:29.161Z,80.68
2023-05-10T13:03:56.385Z,80.74
2023-05-10T13:06:23.661Z,81.51
2023-05-10T13:08:50.975Z,80.81
2023-05-10T13:11:18.362Z,82.00
2023-05-10T13:13:45.719Z,80.98
2023-05-10T13:16:12.965Z,80.85
2023-05-10T13:18:40.306Z,81.71
2023-05-10T13:21:08.489Z,81.79
2023-05-10T13:23:35.629Z,80.95
2023-05-10T13:26:02.769Z,80.09
2023-05-10T13:28:30.539Z,80.13
2023-05-10T13:30:57.942Z,79.91
2023-05-10T13:33:25.097Z,80.51
2023-05-10T13:35:54.341Z,80.12
2023-05-10T13:38:22.903Z,80.86
2023-05-10T13:40:53.594Z,80.12
2023-05-10T13:43:20.973Z,79.48
2023-05-10T13:45:48.470Z,79.22
2023-05-10T13:48:15.646Z,78.44
2023-05-10T13:50:42.944Z,79.68
2023-05-10T13:53:10.062Z,79.08
2023-05-10T13:55:37.227Z,78.98
2023-05-10T13:58:04.434Z,78.43
2023-05-10T14:00:31.666Z,78.57
2023-05-10T14:02:58.843Z,78.72
2023-05-10T14:05:26.676Z,78.22
2023-05-10T14:07:54.677Z,78.47
2023-05-10T14:10:21.852Z,77.71
2023-05-10T14:12:49.109Z,77.53
2023-05-10T14:15:16.428Z,77.87
2023-05-10T14:17:43.763Z,77.13
2023-05-10T14:20:11.591Z,77.30
2023-05-10T14:22:38.661Z,77.60
2023-05-10T14:25:05.859Z,77.51
2023-05-10T14:27:33.731Z,77.07
2023-05-10T14:30:00.888Z,75.85
2023-05-10T14:32:28.868Z,76.24
2023-05-10T14:34:56.693Z,75.84
2023-05-10T14:37:23.869Z,75.78
2023-05-10T14:39:51.335Z,75.46
2023-05-10T14:42:18.511Z,75.31
2023-05-10T14:44:45.629Z,75.24
2023-05-10T14:47:12.820Z,75.84
2023-05-10T14:49:39.962Z,75.59
2023-05-10T14:52:07.136Z,75.40
2023-05-10T14:54:34.544Z,74.80
2023-05-10T14:57:02.300Z,74.87
2023-05-10T14:59:29.609Z,74.86
2023-05-10T15:01:57.144Z,74.36
2023-05-10T15:04:25.466Z,74.24
2023-05-10T15:06:59.963Z,73.93
2023-05-10T15:09:28.611Z,74.22
2023-05-10T15:11:56.209Z,74.82
2023-05-10T15:14:23.651Z,74.95
2023-05-10T15:16:50.929Z,74.55
2023-05-10T15:19:18.069Z,74.86
2023-05-10T15:21:45.681Z,74.39
2023-05-10T15:24:12.927Z,75.19
2023-05-10T15:26:40.011Z,74.74
2023-05-10T15:29:07.095Z,75.16
2023-05-10T15:31:37.378Z,74.95
2023-05-10T15:34:04.713Z,76.08
2023-05-10T15:36:32.818Z,76.56
2023-05-10T15:39:00.713Z,77.54
2023-05-10T15:41:27.985Z,77.31
2023-05-10T15:43:55.097Z,77.13
2023-05-10T15:46:22.727Z,76.93
2023-05-10T15:48:50.001Z,76.53
2023-05-10T15:51:17.054Z,76.61
2023-05-10T15:53:53.106Z,76.18
2023-05-10T15:56:31.500Z,76.16
2023-05-10T15:58:58.570Z,76.45
2023-05-10T16:01:25.892Z,77.52
2023-05-10T16:03:53.017Z,77.59
2023-05-10T16:06:20.382Z,78.06
2023-05-10T16:08:47.539Z,77.99
2023-05-10T16:11:14.733Z,77.98
2023-05-10T16:13:41.980Z,77.94
2023-05-10T16:16:09.222Z,78.33
2023-05-10T16:18:36.660Z,78.92
2023-05-10T16:21:04.725Z,78.82
2023-05-10T16:23:31.923Z,78.50
2023-05-10T16:25:59.011Z,78.32
2023-05-10T16:28:26.248Z,78.33
2023-05-10T16:30:53.320Z,78.24
2023-05-10T16:33:20.690Z,78.60
2023-05-10T16:35:47.885Z,78.18
2023-05-10T16:38:15.053Z,78.39
2023-05-10T16:40:42.107Z,78.55
2023-05-10T16:43:09.308Z,78.85
2023-05-10T16:45:36.352Z,78.90
2023-05-10T16:48:03.888Z,79.27
2023-05-10T16:50:31.169Z,79.63
2023-05-10T16:52:58.263Z,80.01
2023-05-10T16:55:26.352Z,79.74
2023-05-10T16:57:59.590Z,79.62
2023-05-10T17:00:27.139Z,79.44
2023-05-10T17:02:54.820Z,79.62
2023-05-10T17:05:23.739Z,80.34
2023-05-10T17:07:50.837Z,78.75
2023-05-10T17:10:17.939Z,78.74
2023-05-10T17:12:45.516Z,79.59
2023-05-10T17:15:12.973Z,78.47
2023-05-10T17:17:40.097Z,78.48
2023-05-10T17:20:08.319Z,79.27
2023-05-10T17:22:35.526Z,79.20
2023-05-10T17:25:02.722Z,79.49
2023-05-10T17:27:30.217Z,79.00
2023-05-10T17:29:57.833Z,78.95
2023-05-10T17:32:25.628Z,78.31
2023-05-10T17:34:52.759Z,77.96
2023-05-10T17:37:19.860Z,78.60
2023-05-10T17:39:46.983Z,78.28
2023-05-10T17:42:17.443Z,78.61
2023-05-10T17:44:44.544Z,78.63
2023-05-10T17:47:11.632Z,78.95
2023-05-10T17:49:39.787Z,78.72
2023-05-10T17:52:07.331Z,79.31
2023-05-10T17:54:34.462Z,79.08
2023-05-10T17:57:01.888Z,79.05
2023-05-10T17:59:29.008Z,79.53
2023-05-10T18:01:56.093Z,80.13
2023-05-10T18:04:23.357Z,80.10
2023-05-10T18:06:50.513Z,80.41
2023-05-10T18:09:18.100Z,79.62
2023-05-10T18:11:45.162Z,79.46
2023-05-10T18:14:12.218Z,80.40
2023-05-10T18:16:39.333Z,81.30
2023-05-10T18:19:06.482Z,81.82
2023-05-10T18:21:33.809Z,81.60
2023-05-10T18:24:00.876Z,81.62
2023-05-10T18:26:28.352Z,81.39
2023-05-10T18:28:59.396Z,81.40
2023-05-10T18:31:28.458Z,81.72
2023-05-10T18:33:55.509Z,81.71
2023-05-10T18:36:23.178Z,82.01
2023-05-10T18:38:50.308Z,82.83
2023-05-10T18:41:17.389Z,82.90
2023-05-10T18:43:44.549Z,82.45
2023-05-10T18:46:11.676Z,82.89
2023-05-10T18:48:38.884Z,83.08
2023-05-10T18:51:06.427Z,83.83
2023-05-10T18:53:33.818Z,83.50
2023-05-10T18:56:00.880Z,83.18
2023-05-10T18:58:28.794Z,83.63
2023-05-10T19:00:57.061Z,83.92
2023-05-10T19:03:24.239Z,83.83
2023-05-10T19:05:51.309Z,84.63
2023-05-10T19:08:18.502Z,84.73
2023-05-10T19:10:46.073Z,84.92
2023-05-10T19:13:14.858Z,84.31
2023-05-10T19:15:42.151Z,84.53
2023-05-10T19:18:09.466Z,85.04
2023-05-10T19:20:38.099Z,84.62
2023-05-10T19:23:10.201Z,84.88
2023-05-10T19:25:39.146Z,85.43
2023-05-10T19:28:06.264Z,85.40
2023-05-10T19:30:33.464Z,85.77
2023-05-10T19:33:04.970Z,85.78
2023-05-10T19:35:32.457Z,85.62
2023-05-10T19:37:59.670Z,85.43
2023-05-10T19:40:26.862Z,86.06
2023-05-10T19:42:56.685Z,85.80
2023-05-10T19:45:23.739Z,85.85
2023-05-10T19:47:50.941Z,85.54
2023-05-10T19:50:18.176Z,86.17
2023-05-10T19:52:45.583Z,86.51
2023-05-10T19:55:16.009Z,86.38
2023-05-10T19:57:43.293Z,85.88
2023-05-10T20:00:11.625Z,85.98
2023-05-10T20:02:38.696Z,85.76
2023-05-10T20:05:06.329Z,85.68
2023-05-10T20:07:33.874Z,84.83
2023-05-10T20:10:01.046Z,85.10
2023-05-10T20:12:28.770Z,85.12
2023-05-10T20:14:55.867Z,85.16
2023-05-10T20:17:23.019Z,85.86
2023-05-10T20:19:50.133Z,86.46
2023-05-10T20:22:17.238Z,86.95
2023-05-10T20:24:44.700Z,87.51
2023-05-10T20:27:12.066Z,87.28
2023-05-10T20:29:39.178Z,87.18
2023-05-10T20:32:06.573Z,86.44
2023-05-10T20:34:34.768Z,86.90
2023-05-10T20:37:02.002Z,86.44
2023-05-10T20:39:29.987Z,87.59
2023-05-10T20:41:57.188Z,87.80
2023-05-10T20:44:24.336Z,88.10
2023-05-10T20:46:51.399Z,88.25
2023-05-10T20:49:19.712Z,87.91
2023-05-10T20:51:46.989Z,88.36
2023-05-10T20:54:14.513Z,88.38
2023-05-10T20:56:41.602Z,88.40
2023-05-10T20:59:08.698Z,87.77
2023-05-10T21:01:35.876Z,87.99
2023-05-10T21:04:03.584Z,87.98
2023-05-10T21:06:32.104Z,87.95
2023-05-10T21:09:01.353Z,88.25
2023-05-10T21:11:28.481Z,88.08
2023-05-10T21:13:56.406Z,88.20
2023-05-10T21:16:23.496Z,88.01
2023-05-10T21:18:50.945Z,87.63
2023-05-10T21:21:18.051Z,88.09
2023-05-10T21:23:48.628Z,88.01
2023-05-10T21:26:16.375Z,87.48
2023-05-10T21:28:44.348Z,87.33
2023-05-10T21:31:11.609Z,87.17
2023-05-10T21:33:39.308Z,87.18
2023-05-10T21:36:07.422Z,87.82
2023-05-10T21:38:34.879Z,87.40
2023-05-10T21:41:02.348Z,87.71
2023-05-10T21:43:29.463Z,87.71
2023-05-10T21:45:56.548Z,87.85
2023-05-10T21:48:23.627Z,88.47
2023-05-10T21:50:50.781Z,89.19
2023-05-10T21:53:17.844Z,89.20
2023-05-10T21:55:44.982Z,89.37
2023-05-10T21:58:12.076Z,89.74
2023-05-10T22:00:39.165Z,89.57
2023-05-10T22:03:06.385Z,89.72
2023-05-10T22:05:33.681Z,89.96
2023-05-10T22:08:01.016Z,90.00
2023-05-10T22:10:28.492Z,89.85
2023-05-10T22:12:55.628Z,89.56
2023-05-10T22:15:22.930Z,90.09
2023-05-10T22:17:50.024Z,89.97
2023-05-10T22:20:17.384Z,90.20
2023-05-10T22:22:45.916Z,90.51
2023-05-10T22:25:13.078Z,90.85
2023-05-10T22:27:40.641Z,91.18
2023-05-10T22:30:08.543Z,91.34
2023-05-10T22:32:35.648Z,91.27
2023-05-10T22:35:03.665Z,90.81
2023-05-10T22:37:31.081Z,89.46
2023-05-10T22:39:58.108Z,88.89
2023-05-10T22:42:25.320Z,88.48
2023-05-10T22:44:52.451Z,89.01
2023-05-10T22:47:19.548Z,89.93
2023-05-10T22:49:47.015Z,89.89
2023-05-10T22:52:14.147Z,89.77
2023-05-10T22:54:41.355Z,89.34
2023-05-10T22:57:08.821Z,88.94
2023-05-10T22:59:35.850Z,89.66
2023-05-10T23:02:02.936Z,89.68
2023-05-10T23:04:30.190Z,89.87
2023-05-10T23:06:57.872Z,89.25
2023-05-10T23:09:24.972Z,89.34
2023-05-10T23:11:52.037Z,89.45
2023-05-10T23:14:19.376Z,89.95
2023-05-10T23:16:46.990Z,89.52
2023-05-10T23:19:14.412Z,89.92
2023-05-10T23:21:41.564Z,89.90
2023-05-10T23:24:08.788Z,90.40
2023-05-10T23:26:35.985Z,90.13
2023-05-10T23:29:03.073Z,90.23
2023-05-10T23:31:30.389Z,89.62
2023-05-10T23:33:57.474Z,89.58
2023-05-10T23:36:24.548Z,90.01
2023-05-10T23:38:51.587Z,89.67
2023-05-10T23:41:18.837Z,88.72
2023-05-10T23:43:45.890Z,88.41
2023-05-10T23:46:13.025Z,89.14
2023-05-10T23:48:40.115Z,88.87
2023-05-10T23:51:08.568Z,88.58
2023-05-10T23:53:35.609Z,89.01
2023-05-10T23:56:05.303Z,88.65
2023-05-10T23:58:32.360Z,88.52
